Michipicoten — CFG8060 — position and weather

sailwx.info

Track history (hours):
 
Tides and Currents Weather Stations Pressure Air Temp Water Temp Dewpoint Dewpoint Depression Visibility Wind Speed Wind Dir Waves Ship Positions

Michipicoten

Last reported at 2015-Jul-03 14:16 UTC. Time now 2015-Jul-03 17:22 UTC.
Position N 46°30' W 084°24'.

Length 213 m.

Type: Ship. MMSI: 316002501.

Date/timePositionNaut miles runAvg speedWind from/ knotsBaromVisibWave heightAir tempDewpointWater temp
2015-Jul-03 14:16N 46°30' W 084°24'3 3.0
2015-Jul-03 13:16N 46°30' W 084°20'5 6.0
2015-Jul-03 12:25N 46°26' W 084°15'15 7.9
2015-Jul-03 10:33N 46°12' W 084°07'1111.2
2015-Jul-03 09:33N 46°03' W 083°58'1211.7
2015-Jul-03 08:33N 45°53' W 083°50'1413.7
2015-Jul-03 07:34N 45°42' W 083°38'1413.7
2015-Jul-03 06:33N 45°31' W 083°27'  
2015-Jun-29 16:33N 45°55' W 083°13'6 5.6
2015-Jun-29 15:34N 46°00' W 083°15'1413.7
2015-Jun-29 14:33N 46°09' W 083°31'6 6.3
2015-Jun-29 13:33N 46°15' W 083°32'0 0.0
2015-Jun-29 12:33N 46°15' W 083°32'0 0.0
2015-Jun-29 11:33N 46°15' W 083°32'0 0.0
2015-Jun-29 10:33N 46°15' W 083°32'0 0.0
2015-Jun-29 09:33N 46°15' W 083°32'2 1.7
2015-Jun-29 08:33N 46°14' W 083°34'1111.4
2015-Jun-29 07:33N 46°04' W 083°25'1312.4
2015-Jun-29 06:32N 45°54' W 083°15'1313.7
2015-Jun-29 05:34N 45°40' W 083°13'34 1.0
2015-Jun-27 19:07N 45°39' W 084°02'813.4
2015-Jun-27 18:33N 45°41' W 084°12'1212.4
2015-Jun-27 17:33N 45°43' W 084°30'1312.9
2015-Jun-27 16:33N 45°49' W 084°46'1313.4
2015-Jun-27 15:33N 45°51' W 085°05'1313.2
2015-Jun-27 14:33N 45°52' W 085°24'1313.2
2015-Jun-27 13:33N 45°55' W 085°43'8 7.6
2015-Jun-27 12:33N 45°58' W 085°52'0 0.0
2015-Jun-27 11:33N 45°58' W 085°52'0 0.1
2015-Jun-27 10:33N 45°58' W 085°52'0 0.0
2015-Jun-27 09:33N 45°58' W 085°52'0 0.1
2015-Jun-27 08:32N 45°58' W 085°52'0 0.0
2015-Jun-27 07:33N 45°58' W 085°52'0 0.0
2015-Jun-27 06:33N 45°58' W 085°52'0 0.0
2015-Jun-27 05:33N 45°58' W 085°52'0 0.0
2015-Jun-27 04:33N 45°58' W 085°52'0 0.1
2015-Jun-27 03:33N 45°58' W 085°52'2 1.6
2015-Jun-27 02:33N 45°56' W 085°52'1212.3
2015-Jun-27 01:33N 45°54' W 085°35'1413.7
2015-Jun-27 00:33N 45°52' W 085°15'1413.9
2015-Jun-26 23:34N 45°50' W 084°55'1413.6
2015-Jun-26 22:34N 45°46' W 084°37'1313.4
2015-Jun-26 21:34N 45°42' W 084°19'1413.9
2015-Jun-26 20:34N 45°36' W 084°01'  
2015-Jun-24 11:33N 46°17' W 083°46'0 0.0
2015-Jun-24 10:20N 46°17' W 083°46'0 0.0
2015-Jun-24 09:33N 46°17' W 083°46'0 0.0
2015-Jun-24 08:33N 46°17' W 083°46'0 0.0
2015-Jun-24 07:33N 46°17' W 083°46'0 0.0
2015-Jun-24 06:33N 46°18' W 083°46'0 0.0
2015-Jun-24 05:33N 46°17' W 083°46'0 0.0
2015-Jun-24 04:33N 46°17' W 083°46'1 1.0
2015-Jun-24 03:33N 46°17' W 083°46'1 1.1
2015-Jun-24 02:33N 46°16' W 083°47'  
Track history (hours):
 
Tides and Currents Weather Stations Pressure Air Temp Water Temp Dewpoint Dewpoint Depression Visibility Wind Speed Wind Dir Waves Ship Positions

Michipicoten

Last reported at 2015-Jul-03 14:16 UTC. Time now 2015-Jul-03 17:22 UTC.
Position N 46°30' W 084°24'.

Length 213 m.

Type: Ship. MMSI: 316002501.

Date/timePositionNaut miles runAvg speedWind from/ knotsBaromVisibWave heightAir tempDewpointWater temp
2015-Jul-03 14:16N 46°30' W 084°24'3 3.0
2015-Jul-03 13:16N 46°30' W 084°20'5 6.0
2015-Jul-03 12:25N 46°26' W 084°15'15 7.9
2015-Jul-03 10:33N 46°12' W 084°07'1111.2
2015-Jul-03 09:33N 46°03' W 083°58'1211.7
2015-Jul-03 08:33N 45°53' W 083°50'1413.7
2015-Jul-03 07:34N 45°42' W 083°38'1413.7
2015-Jul-03 06:33N 45°31' W 083°27'  
2015-Jun-29 16:33N 45°55' W 083°13'6 5.6
2015-Jun-29 15:34N 46°00' W 083°15'1413.7
2015-Jun-29 14:33N 46°09' W 083°31'6 6.3
2015-Jun-29 13:33N 46°15' W 083°32'0 0.0
2015-Jun-29 12:33N 46°15' W 083°32'0 0.0
2015-Jun-29 11:33N 46°15' W 083°32'0 0.0
2015-Jun-29 10:33N 46°15' W 083°32'0 0.0
2015-Jun-29 09:33N 46°15' W 083°32'2 1.7
2015-Jun-29 08:33N 46°14' W 083°34'1111.4
2015-Jun-29 07:33N 46°04' W 083°25'1312.4
2015-Jun-29 06:32N 45°54' W 083°15'1313.7
2015-Jun-29 05:34N 45°40' W 083°13'34 1.0
2015-Jun-27 19:07N 45°39' W 084°02'813.4
2015-Jun-27 18:33N 45°41' W 084°12'1212.4
2015-Jun-27 17:33N 45°43' W 084°30'1312.9
2015-Jun-27 16:33N 45°49' W 084°46'1313.4
2015-Jun-27 15:33N 45°51' W 085°05'1313.2
2015-Jun-27 14:33N 45°52' W 085°24'1313.2
2015-Jun-27 13:33N 45°55' W 085°43'8 7.6
2015-Jun-27 12:33N 45°58' W 085°52'0 0.0
2015-Jun-27 11:33N 45°58' W 085°52'0 0.1
2015-Jun-27 10:33N 45°58' W 085°52'0 0.0
2015-Jun-27 09:33N 45°58' W 085°52'0 0.1
2015-Jun-27 08:32N 45°58' W 085°52'0 0.0
2015-Jun-27 07:33N 45°58' W 085°52'0 0.0
2015-Jun-27 06:33N 45°58' W 085°52'0 0.0
2015-Jun-27 05:33N 45°58' W 085°52'0 0.0
2015-Jun-27 04:33N 45°58' W 085°52'0 0.1
2015-Jun-27 03:33N 45°58' W 085°52'2 1.6
2015-Jun-27 02:33N 45°56' W 085°52'1212.3
2015-Jun-27 01:33N 45°54' W 085°35'1413.7
2015-Jun-27 00:33N 45°52' W 085°15'1413.9
2015-Jun-26 23:34N 45°50' W 084°55'1413.6
2015-Jun-26 22:34N 45°46' W 084°37'1313.4
2015-Jun-26 21:34N 45°42' W 084°19'1413.9
2015-Jun-26 20:34N 45°36' W 084°01'  
2015-Jun-24 11:33N 46°17' W 083°46'0 0.0
2015-Jun-24 10:20N 46°17' W 083°46'0 0.0
2015-Jun-24 09:33N 46°17' W 083°46'0 0.0
2015-Jun-24 08:33N 46°17' W 083°46'0 0.0
2015-Jun-24 07:33N 46°17' W 083°46'0 0.0
2015-Jun-24 06:33N 46°18' W 083°46'0 0.0
2015-Jun-24 05:33N 46°17' W 083°46'0 0.0
2015-Jun-24 04:33N 46°17' W 083°46'1 1.0
2015-Jun-24 03:33N 46°17' W 083°46'1 1.1
2015-Jun-24 02:33N 46°16' W 083°47'  

Dump ship's entire track history